Mamou, Louisiana
Current Conditions -  °F | °C
As of 6:35 PM on Friday 19 Dec 2014 (Local Time) from KACP Reporting Station
Light Rain Light Rain  
Wind Chill: 50°   Ceiling: 600
Heat Index: 50°   Visibility: 10mi
Dew Point: 48°   Wind: 8mph
Humidity: 94%   Direction: 60°ENE
Pressure: 30.07"   Gusts: NA
Location:  30.63°N, 92.42°W
Report Text: KACP 200035Z AUTO 06007KT 10SM -RA OVC006 10/09 A3007 RMK AO2 T01010091
Loading
Personal Weather Stations






























Interactive Weather Map New forecast layout! Learn more

10-Day Weather Forecast

Advertisements
Track Severe Weather on mobile